Hebron, New Hampshire
Current Conditions -  °F | °C
As of 5:15 AM on Friday 19 Dec 2014 (Local Time) from K1P1 Reporting Station
Overcast Overcast  
Wind Chill: 19°   Ceiling: 3500
Heat Index: 29°   Visibility: 10mi
Dew Point: 27°   Wind: 13mph
Humidity: 90%   Direction: 290°WNW
Pressure: 29.87"   Gusts: 17mph
Location:  43.69°N, 71.81°W
Report Text: K1P1 191015Z AUTO 29011G15KT 10SM SCT022 BKN035 OVC042 M01/M03 A2987 RMK AO2 T10151030
Loading
Personal Weather Stations






























Interactive Weather Map New forecast layout! Learn more

10-Day Weather Forecast

Advertisements
Track Severe Weather on mobile